sensor_id;sensor_type;location;lat;lon;timestamp;pressure;altitude;pressure_sealevel;temperature;humidity
10342;BME280;5216;54.602;18.356;2024-02-14T00:00:22;101794.00;;;8.02;66.40
10342;BME280;5216;54.602;18.356;2024-02-14T00:02:51;101801.22;;;8.00;66.56
10342;BME280;5216;54.602;18.356;2024-02-14T00:05:18;101795.06;;;8.00;66.33
10342;BME280;5216;54.602;18.356;2024-02-14T00:07:45;101799.41;;;8.01;66.68
10342;BME280;5216;54.602;18.356;2024-02-14T00:10:12;101799.50;;;7.99;66.19
10342;BME280;5216;54.602;18.356;2024-02-14T00:12:38;101798.50;;;8.02;66.51
10342;BME280;5216;54.602;18.356;2024-02-14T00:15:06;101798.66;;;7.99;66.44
10342;BME280;5216;54.602;18.356;2024-02-14T00:17:34;101791.81;;;7.95;66.23
10342;BME280;5216;54.602;18.356;2024-02-14T00:20:02;101800.94;;;7.91;66.37
10342;BME280;5216;54.602;18.356;2024-02-14T00:22:30;101799.41;;;7.87;66.33
10342;BME280;5216;54.602;18.356;2024-02-14T00:24:57;101804.91;;;7.84;66.57
10342;BME280;5216;54.602;18.356;2024-02-14T00:27:24;101790.81;;;7.82;66.77
10342;BME280;5216;54.602;18.356;2024-02-14T00:29:53;101795.28;;;7.81;66.63
10342;BME280;5216;54.602;18.356;2024-02-14T00:32:21;101798.03;;;7.80;66.26
10342;BME280;5216;54.602;18.356;2024-02-14T00:34:48;101796.34;;;7.79;66.63
10342;BME280;5216;54.602;18.356;2024-02-14T00:37:17;101790.25;;;7.77;66.08
10342;BME280;5216;54.602;18.356;2024-02-14T00:39:43;101795.66;;;7.75;66.30
10342;BME280;5216;54.602;18.356;2024-02-14T00:42:10;101801.06;;;7.74;66.31
10342;BME280;5216;54.602;18.356;2024-02-14T00:44:37;101795.84;;;7.72;66.55
10342;BME280;5216;54.602;18.356;2024-02-14T00:47:04;101786.13;;;7.71;66.13
10342;BME280;5216;54.602;18.356;2024-02-14T00:49:34;101789.84;;;7.69;66.68
10342;BME280;5216;54.602;18.356;2024-02-14T00:52:01;101797.06;;;7.67;66.46
10342;BME280;5216;54.602;18.356;2024-02-14T00:54:28;101814.06;;;7.65;66.13
10342;BME280;5216;54.602;18.356;2024-02-14T00:56:55;101800.84;;;7.63;66.14
10342;BME280;5216;54.602;18.356;2024-02-14T00:59:22;101800.16;;;7.60;66.35
10342;BME280;5216;54.602;18.356;2024-02-14T01:01:48;101806.34;;;7.60;66.36
10342;BME280;5216;54.602;18.356;2024-02-14T01:04:15;101804.63;;;7.59;66.55
10342;BME280;5216;54.602;18.356;2024-02-14T01:06:42;101809.97;;;7.59;66.56
10342;BME280;5216;54.602;18.356;2024-02-14T01:09:09;101804.81;;;7.56;66.43
10342;BME280;5216;54.602;18.356;2024-02-14T01:11:35;101805.00;;;7.53;66.04
10342;BME280;5216;54.602;18.356;2024-02-14T01:14:05;101796.41;;;7.48;66.04
10342;BME280;5216;54.602;18.356;2024-02-14T01:16:31;101805.50;;;7.44;66.15
10342;BME280;5216;54.602;18.356;2024-02-14T01:18:58;101808.44;;;7.40;66.11
10342;BME280;5216;54.602;18.356;2024-02-14T01:21:25;101800.75;;;7.35;65.89
10342;BME280;5216;54.602;18.356;2024-02-14T01:23:52;101803.63;;;7.31;66.21
10342;BME280;5216;54.602;18.356;2024-02-14T01:26:18;101795.09;;;7.26;66.42
10342;BME280;5216;54.602;18.356;2024-02-14T01:28:47;101800.66;;;7.22;66.34
10342;BME280;5216;54.602;18.356;2024-02-14T01:31:15;101794.56;;;7.20;66.23
10342;BME280;5216;54.602;18.356;2024-02-14T01:33:42;101798.19;;;7.19;66.42
10342;BME280;5216;54.602;18.356;2024-02-14T01:36:09;101800.84;;;7.19;66.51
10342;BME280;5216;54.602;18.356;2024-02-14T01:38:36;101794.75;;;7.17;66.42
10342;BME280;5216;54.602;18.356;2024-02-14T01:41:03;101789.59;;;7.14;65.98
10342;BME280;5216;54.602;18.356;2024-02-14T01:43:30;101793.38;;;7.10;65.94
10342;BME280;5216;54.602;18.356;2024-02-14T01:46:04;101798.69;;;7.10;66.02
10342;BME280;5216;54.602;18.356;2024-02-14T01:48:31;101787.34;;;7.06;66.29
10342;BME280;5216;54.602;18.356;2024-02-14T01:51:01;101799.22;;;7.01;65.77
10342;BME280;5216;54.602;18.356;2024-02-14T01:53:29;101800.75;;;7.05;66.46
10342;BME280;5216;54.602;18.356;2024-02-14T01:55:58;101809.59;;;7.05;66.04
10342;BME280;5216;54.602;18.356;2024-02-14T01:58:26;101802.66;;;7.03;66.22
10342;BME280;5216;54.602;18.356;2024-02-14T02:00:54;101811.38;;;7.05;66.46
10342;BME280;5216;54.602;18.356;2024-02-14T02:03:26;101806.41;;;6.99;66.12
10342;BME280;5216;54.602;18.356;2024-02-14T02:05:53;101820.81;;;6.95;65.55
10342;BME280;5216;54.602;18.356;2024-02-14T02:08:21;101820.97;;;6.92;66.21
10342;BME280;5216;54.602;18.356;2024-02-14T02:10:48;101820.97;;;6.92;66.63
10342;BME280;5216;54.602;18.356;2024-02-14T02:13:15;101808.81;;;6.88;65.97
10342;BME280;5216;54.602;18.356;2024-02-14T02:15:42;101815.84;;;6.89;66.33
10342;BME280;5216;54.602;18.356;2024-02-14T02:18:12;101816.00;;;6.86;66.68
10342;BME280;5216;54.602;18.356;2024-02-14T02:20:40;101816.00;;;6.86;66.43
10342;BME280;5216;54.602;18.356;2024-02-14T02:23:11;101811.66;;;6.85;66.40
10342;BME280;5216;54.602;18.356;2024-02-14T02:25:42;101811.88;;;6.81;66.28
10342;BME280;5216;54.602;18.356;2024-02-14T02:28:09;101810.25;;;6.78;66.39
10342;BME280;5216;54.602;18.356;2024-02-14T02:30:36;101819.78;;;6.82;67.18
10342;BME280;5216;54.602;18.356;2024-02-14T02:33:04;101807.97;;;6.88;67.18
10342;BME280;5216;54.602;18.356;2024-02-14T02:35:33;101813.97;;;6.91;67.61
10342;BME280;5216;54.602;18.356;2024-02-14T02:38:00;101812.41;;;6.87;67.00
10342;BME280;5216;54.602;18.356;2024-02-14T02:40:27;101818.03;;;6.81;66.56
10342;BME280;5216;54.602;18.356;2024-02-14T02:42:54;101816.69;;;6.74;66.11
10342;BME280;5216;54.602;18.356;2024-02-14T02:45:21;101819.75;;;6.67;66.25
10342;BME280;5216;54.602;18.356;2024-02-14T02:47:48;101828.13;;;6.59;65.83
10342;BME280;5216;54.602;18.356;2024-02-14T02:50:18;101823.00;;;6.57;66.48
10342;BME280;5216;54.602;18.356;2024-02-14T02:52:47;101818.00;;;6.51;65.88
10342;BME280;5216;54.602;18.356;2024-02-14T02:55:14;101823.47;;;6.48;66.05
10342;BME280;5216;54.602;18.356;2024-02-14T02:57:44;101821.00;;;6.45;66.54
10342;BME280;5216;54.602;18.356;2024-02-14T03:00:12;101815.06;;;6.40;66.20
10342;BME280;5216;54.602;18.356;2024-02-14T03:02:40;101823.97;;;6.39;66.32
10342;BME280;5216;54.602;18.356;2024-02-14T03:05:12;101831.84;;;6.40;66.41
10342;BME280;5216;54.602;18.356;2024-02-14T03:07:45;101838.19;;;6.38;66.26
10342;BME280;5216;54.602;18.356;2024-02-14T03:10:14;101836.63;;;6.34;66.12
10342;BME280;5216;54.602;18.356;2024-02-14T03:12:41;101840.06;;;6.36;66.26
10342;BME280;5216;54.602;18.356;2024-02-14T03:15:08;101848.09;;;6.34;66.44
10342;BME280;5216;54.602;18.356;2024-02-14T03:17:37;101843.69;;;6.35;66.76
10342;BME280;5216;54.602;18.356;2024-02-14T03:20:04;101834.94;;;6.33;65.99
10342;BME280;5216;54.602;18.356;2024-02-14T03:22:44;101845.22;;;6.39;67.13
10342;BME280;5216;54.602;18.356;2024-02-14T03:25:18;101838.63;;;6.46;67.01
10342;BME280;5216;54.602;18.356;2024-02-14T03:27:45;101840.09;;;6.51;67.03
10342;BME280;5216;54.602;18.356;2024-02-14T03:30:14;101840.81;;;6.55;67.78
10342;BME280;5216;54.602;18.356;2024-02-14T03:32:43;101853.22;;;6.54;67.73
10342;BME280;5216;54.602;18.356;2024-02-14T03:35:10;101842.69;;;6.53;68.23
10342;BME280;5216;54.602;18.356;2024-02-14T03:37:43;101857.66;;;6.54;67.97
10342;BME280;5216;54.602;18.356;2024-02-14T03:40:14;101852.44;;;6.52;68.05
10342;BME280;5216;54.602;18.356;2024-02-14T03:42:41;101848.16;;;6.50;68.24
10342;BME280;5216;54.602;18.356;2024-02-14T03:45:08;101856.91;;;6.52;68.62
10342;BME280;5216;54.602;18.356;2024-02-14T03:47:35;101841.91;;;6.51;68.45
10342;BME280;5216;54.602;18.356;2024-02-14T03:50:09;101850.03;;;6.48;68.51
10342;BME280;5216;54.602;18.356;2024-02-14T03:52:36;101846.44;;;6.49;68.80
10342;BME280;5216;54.602;18.356;2024-02-14T03:55:04;101856.19;;;6.48;68.57
10342;BME280;5216;54.602;18.356;2024-02-14T03:57:31;101848.16;;;6.50;68.74
10342;BME280;5216;54.602;18.356;2024-02-14T04:00:00;101857.84;;;6.51;68.85
10342;BME280;5216;54.602;18.356;2024-02-14T04:02:31;101856.91;;;6.52;68.63
10342;BME280;5216;54.602;18.356;2024-02-14T04:04:58;101857.75;;;6.52;68.84
10342;BME280;5216;54.602;18.356;2024-02-14T04:07:25;101861.09;;;6.56;69.03
10342;BME280;5216;54.602;18.356;2024-02-14T04:09:53;101853.91;;;6.58;68.69
10342;BME280;5216;54.602;18.356;2024-02-14T04:12:19;101852.81;;;6.61;68.49
10342;BME280;5216;54.602;18.356;2024-02-14T04:14:46;101849.22;;;6.62;68.86
10342;BME280;5216;54.602;18.356;2024-02-14T04:17:13;101854.91;;;6.72;68.67
10342;BME280;5216;54.602;18.356;2024-02-14T04:19:40;101845.66;;;6.79;68.71
10342;BME280;5216;54.602;18.356;2024-02-14T04:22:07;101852.44;;;6.84;68.15
10342;BME280;5216;54.602;18.356;2024-02-14T04:24:35;101844.31;;;6.87;68.64
10342;BME280;5216;54.602;18.356;2024-02-14T04:27:02;101836.91;;;6.92;68.07
10342;BME280;5216;54.602;18.356;2024-02-14T04:29:31;101843.00;;;6.94;67.93
10342;BME280;5216;54.602;18.356;2024-02-14T04:32:01;101842.94;;;6.96;67.94
10342;BME280;5216;54.602;18.356;2024-02-14T04:34:28;101843.78;;;6.96;68.00
10342;BME280;5216;54.602;18.356;2024-02-14T04:36:57;101846.44;;;6.96;67.75
10342;BME280;5216;54.602;18.356;2024-02-14T04:39:24;101840.28;;;6.96;67.94
10342;BME280;5216;54.602;18.356;2024-02-14T04:41:51;101841.19;;;6.95;67.76
10342;BME280;5216;54.602;18.356;2024-02-14T04:44:27;101849.28;;;6.93;67.49
10342;BME280;5216;54.602;18.356;2024-02-14T04:46:55;101845.66;;;6.94;67.43
10342;BME280;5216;54.602;18.356;2024-02-14T04:49:23;101846.50;;;6.95;67.38
10342;BME280;5216;54.602;18.356;2024-02-14T04:51:51;101834.00;;;6.96;67.42
10342;BME280;5216;54.602;18.356;2024-02-14T04:54:18;101841.19;;;6.95;67.34
10342;BME280;5216;54.602;18.356;2024-02-14T04:56:44;101832.66;;;6.90;67.39
10342;BME280;5216;54.602;18.356;2024-02-14T04:59:20;101847.56;;;6.92;67.84
10342;BME280;5216;54.602;18.356;2024-02-14T05:01:47;101840.69;;;6.88;67.70
10342;BME280;5216;54.602;18.356;2024-02-14T05:04:14;101850.28;;;6.91;67.55
10342;BME280;5216;54.602;18.356;2024-02-14T05:06:43;101853.81;;;6.91;67.67
10342;BME280;5216;54.602;18.356;2024-02-14T05:09:10;101853.91;;;6.90;67.76
10342;BME280;5216;54.602;18.356;2024-02-14T05:11:41;101854.75;;;6.90;67.56
10342;BME280;5216;54.602;18.356;2024-02-14T05:14:08;101856.47;;;6.91;67.74
10342;BME280;5216;54.602;18.356;2024-02-14T05:16:35;101847.75;;;6.89;67.33
10342;BME280;5216;54.602;18.356;2024-02-14T05:19:02;101848.59;;;6.90;67.12
10342;BME280;5216;54.602;18.356;2024-02-14T05:21:29;101856.63;;;6.88;67.71
10342;BME280;5216;54.602;18.356;2024-02-14T05:23:56;101856.63;;;6.88;67.63
10342;BME280;5216;54.602;18.356;2024-02-14T05:26:23;101855.84;;;6.86;67.59
10342;BME280;5216;54.602;18.356;2024-02-14T05:28:49;101853.19;;;6.86;67.19
10342;BME280;5216;54.602;18.356;2024-02-14T05:31:16;101855.84;;;6.86;67.80
10342;BME280;5216;54.602;18.356;2024-02-14T05:33:43;101848.84;;;6.85;67.65
10342;BME280;5216;54.602;18.356;2024-02-14T05:36:10;101849.00;;;6.82;67.36
10342;BME280;5216;54.602;18.356;2024-02-14T05:38:37;101854.31;;;6.82;67.38
10342;BME280;5216;54.602;18.356;2024-02-14T05:41:04;101851.66;;;6.82;67.58
10342;BME280;5216;54.602;18.356;2024-02-14T05:43:31;101852.50;;;6.83;67.63
10342;BME280;5216;54.602;18.356;2024-02-14T05:45:57;101848.16;;;6.82;67.68
10342;BME280;5216;54.602;18.356;2024-02-14T05:48:24;101851.81;;;6.79;67.47
10342;BME280;5216;54.602;18.356;2024-02-14T05:50:52;101853.53;;;6.80;67.77
10342;BME280;5216;54.602;18.356;2024-02-14T05:53:19;101853.63;;;6.79;67.53
10342;BME280;5216;54.602;18.356;2024-02-14T05:55:46;101864.31;;;6.77;67.67
10342;BME280;5216;54.602;18.356;2024-02-14T05:58:13;101864.50;;;6.74;67.31
10342;BME280;5216;54.602;18.356;2024-02-14T06:00:40;101864.50;;;6.74;67.46
10342;BME280;5216;54.602;18.356;2024-02-14T06:03:07;101866.38;;;6.72;67.47
10342;BME280;5216;54.602;18.356;2024-02-14T06:05:34;101870.75;;;6.73;67.97
10342;BME280;5216;54.602;18.356;2024-02-14T06:08:01;101873.41;;;6.73;67.54
10342;BME280;5216;54.602;18.356;2024-02-14T06:10:29;101873.06;;;6.79;68.15
10342;BME280;5216;54.602;18.356;2024-02-14T06:12:56;101880.09;;;6.80;67.94
10342;BME280;5216;54.602;18.356;2024-02-14T06:15:23;101881.03;;;6.79;66.97
10342;BME280;5216;54.602;18.356;2024-02-14T06:17:50;101882.06;;;6.77;67.26
10342;BME280;5216;54.602;18.356;2024-02-14T06:20:17;101873.56;;;6.70;67.35
10342;BME280;5216;54.602;18.356;2024-02-14T06:22:44;101884.13;;;6.72;67.28
10342;BME280;5216;54.602;18.356;2024-02-14T06:25:22;101882.47;;;6.69;67.66
10342;BME280;5216;54.602;18.356;2024-02-14T06:27:49;101880.84;;;6.67;67.16
10342;BME280;5216;54.602;18.356;2024-02-14T06:30:16;101889.84;;;6.64;67.86
10342;BME280;5216;54.602;18.356;2024-02-14T06:32:44;101875.47;;;6.68;67.72
10342;BME280;5216;54.602;18.356;2024-02-14T06:35:11;101892.25;;;6.69;67.71
10342;BME280;5216;54.602;18.356;2024-02-14T06:37:39;101886.09;;;6.68;67.33
10342;BME280;5216;54.602;18.356;2024-02-14T06:40:18;101892.31;;;6.67;67.83
10342;BME280;5216;54.602;18.356;2024-02-14T06:42:45;101891.53;;;6.65;67.29
10342;BME280;5216;54.602;18.356;2024-02-14T06:45:11;101889.84;;;6.64;67.62
10342;BME280;5216;54.602;18.356;2024-02-14T06:47:38;101898.66;;;6.65;67.75
10342;BME280;5216;54.602;18.356;2024-02-14T06:50:06;101897.75;;;6.66;68.04
10342;BME280;5216;54.602;18.356;2024-02-14T06:52:36;101896.72;;;6.68;68.24
10342;BME280;5216;54.602;18.356;2024-02-14T06:55:02;101892.25;;;6.69;68.27
10342;BME280;5216;54.602;18.356;2024-02-14T06:57:30;101879.81;;;6.69;67.67
10342;BME280;5216;54.602;18.356;2024-02-14T06:59:57;101885.06;;;6.71;67.71
10342;BME280;5216;54.602;18.356;2024-02-14T07:02:23;101882.13;;;6.75;67.86
10342;BME280;5216;54.602;18.356;2024-02-14T07:04:54;101890.75;;;6.80;67.80
10342;BME280;5216;54.602;18.356;2024-02-14T07:07:21;101879.97;;;6.83;67.86
10342;BME280;5216;54.602;18.356;2024-02-14T07:09:48;101881.50;;;6.87;67.68
10342;BME280;5216;54.602;18.356;2024-02-14T07:12:15;101884.94;;;6.89;68.00
10342;BME280;5216;54.602;18.356;2024-02-14T07:14:41;101883.06;;;6.91;67.47
10342;BME280;5216;54.602;18.356;2024-02-14T07:17:08;101883.97;;;6.90;68.10
10342;BME280;5216;54.602;18.356;2024-02-14T07:19:35;101886.63;;;6.90;68.28
10342;BME280;5216;54.602;18.356;2024-02-14T07:22:02;101889.28;;;6.90;67.38
10342;BME280;5216;54.602;18.356;2024-02-14T07:24:29;101891.94;;;6.90;67.71
10342;BME280;5216;54.602;18.356;2024-02-14T07:26:55;101884.75;;;6.92;67.77
10342;BME280;5216;54.602;18.356;2024-02-14T07:29:23;101889.16;;;6.93;68.29
10342;BME280;5216;54.602;18.356;2024-02-14T07:31:50;101890.00;;;6.94;68.20
10342;BME280;5216;54.602;18.356;2024-02-14T07:34:19;101887.34;;;6.94;68.05
10342;BME280;5216;54.602;18.356;2024-02-14T07:36:46;101895.25;;;6.95;67.78
10342;BME280;5216;54.602;18.356;2024-02-14T07:39:13;101891.63;;;6.96;68.19
10342;BME280;5216;54.602;18.356;2024-02-14T07:41:40;101888.81;;;6.99;68.23
10342;BME280;5216;54.602;18.356;2024-02-14T07:44:07;101881.69;;;6.99;68.05
10342;BME280;5216;54.602;18.356;2024-02-14T07:46:34;101883.22;;;7.03;67.97
10342;BME280;5216;54.602;18.356;2024-02-14T07:49:00;101882.19;;;7.06;67.90
10342;BME280;5216;54.602;18.356;2024-02-14T07:51:27;101887.38;;;7.09;68.17
10342;BME280;5216;54.602;18.356;2024-02-14T07:53:55;101881.09;;;7.10;67.83
10342;BME280;5216;54.602;18.356;2024-02-14T07:56:22;101891.56;;;7.13;68.23
10342;BME280;5216;54.602;18.356;2024-02-14T07:58:49;101890.47;;;7.17;68.31
10342;BME280;5216;54.602;18.356;2024-02-14T08:01:16;101892.00;;;7.21;68.14
10342;BME280;5216;54.602;18.356;2024-02-14T08:03:43;101896.28;;;7.23;67.94
10342;BME280;5216;54.602;18.356;2024-02-14T08:06:13;101893.47;;;7.26;68.58
10342;BME280;5216;54.602;18.356;2024-02-14T08:08:42;101894.91;;;7.32;68.39
10342;BME280;5216;54.602;18.356;2024-02-14T08:11:13;101887.53;;;7.36;68.31
10342;BME280;5216;54.602;18.356;2024-02-14T08:13:44;101889.84;;;7.42;68.34
10342;BME280;5216;54.602;18.356;2024-02-14T08:16:11;101890.47;;;7.47;68.17
10342;BME280;5216;54.602;18.356;2024-02-14T08:18:38;101892.00;;;7.51;67.42
10342;BME280;5216;54.602;18.356;2024-02-14T08:21:09;101874.31;;;7.50;67.33
10342;BME280;5216;54.602;18.356;2024-02-14T08:23:40;101890.78;;;7.57;66.70
10342;BME280;5216;54.602;18.356;2024-02-14T08:26:08;101889.94;;;7.56;66.94
10342;BME280;5216;54.602;18.356;2024-02-14T08:28:37;101895.09;;;7.59;66.83
10342;BME280;5216;54.602;18.356;2024-02-14T08:31:11;101905.81;;;7.58;66.89
10342;BME280;5216;54.602;18.356;2024-02-14T08:33:38;101898.69;;;7.58;66.59
10342;BME280;5216;54.602;18.356;2024-02-14T08:36:06;101894.91;;;7.62;66.67
10342;BME280;5216;54.602;18.356;2024-02-14T08:38:34;101902.81;;;7.64;66.34
10342;BME280;5216;54.602;18.356;2024-02-14T08:41:04;101907.06;;;7.66;66.14
10342;BME280;5216;54.602;18.356;2024-02-14T08:43:31;101904.19;;;7.70;66.43
10342;BME280;5216;54.602;18.356;2024-02-14T08:45:58;101900.41;;;7.74;66.75
10342;BME280;5216;54.602;18.356;2024-02-14T08:48:25;101909.81;;;7.80;66.48
10342;BME280;5216;54.602;18.356;2024-02-14T08:50:56;101908.72;;;7.84;66.64
10342;BME280;5216;54.602;18.356;2024-02-14T08:53:28;101912.91;;;7.88;65.90
10342;BME280;5216;54.602;18.356;2024-02-14T08:55:55;101904.94;;;7.88;65.58
10342;BME280;5216;54.602;18.356;2024-02-14T08:58:22;101899.50;;;7.89;65.38
10342;BME280;5216;54.602;18.356;2024-02-14T09:00:50;101907.31;;;7.92;65.46
10342;BME280;5216;54.602;18.356;2024-02-14T09:03:34;101910.75;;;7.94;65.30
10342;BME280;5216;54.602;18.356;2024-02-14T09:06:01;101920.34;;;7.97;64.95
10342;BME280;5216;54.602;18.356;2024-02-14T09:08:32;101915.78;;;7.99;65.20
10342;BME280;5216;54.602;18.356;2024-02-14T09:11:02;101927.97;;;8.03;64.74
10342;BME280;5216;54.602;18.356;2024-02-14T09:13:29;101922.56;;;8.04;64.52
10342;BME280;5216;54.602;18.356;2024-02-14T09:15:58;101918.88;;;8.06;64.42
10342;BME280;5216;54.602;18.356;2024-02-14T09:18:26;101903.75;;;8.07;63.89
10342;BME280;5216;54.602;18.356;2024-02-14T09:20:53;101909.91;;;8.09;64.09
10342;BME280;5216;54.602;18.356;2024-02-14T09:23:21;101911.66;;;8.08;63.67
10342;BME280;5216;54.602;18.356;2024-02-14T09:25:50;101916.84;;;8.11;63.90
10342;BME280;5216;54.602;18.356;2024-02-14T09:28:18;101906.94;;;8.13;63.54
10342;BME280;5216;54.602;18.356;2024-02-14T09:30:47;101907.72;;;8.15;63.53
10342;BME280;5216;54.602;18.356;2024-02-14T09:33:14;101918.19;;;8.18;63.65
10342;BME280;5216;54.602;18.356;2024-02-14T09:35:42;101903.94;;;8.19;63.53
10342;BME280;5216;54.602;18.356;2024-02-14T09:38:16;101909.06;;;8.22;63.48
10342;BME280;5216;54.602;18.356;2024-02-14T09:40:43;101903.38;;;8.28;63.38
10342;BME280;5216;54.602;18.356;2024-02-14T09:43:36;101913.69;;;8.34;63.12
10342;BME280;5216;54.602;18.356;2024-02-14T09:46:07;101892.16;;;8.37;63.13
10342;BME280;5216;54.602;18.356;2024-02-14T09:48:36;101904.44;;;8.40;62.89
10342;BME280;5216;54.602;18.356;2024-02-14T09:51:05;101903.31;;;8.43;63.00
10342;BME280;5216;54.602;18.356;2024-02-14T09:53:36;101902.09;;;8.49;63.08
10342;BME280;5216;54.602;18.356;2024-02-14T09:56:12;101910.69;;;8.54;62.21
10342;BME280;5216;54.602;18.356;2024-02-14T09:58:40;101911.44;;;8.56;61.53
10342;BME280;5216;54.602;18.356;2024-02-14T10:01:07;101921.13;;;8.57;61.63
10342;BME280;5216;54.602;18.356;2024-02-14T10:03:36;101912.19;;;8.58;61.48
10342;BME280;5216;54.602;18.356;2024-02-14T10:06:03;101912.88;;;8.61;61.38
10342;BME280;5216;54.602;18.356;2024-02-14T10:08:34;101913.53;;;8.65;61.26
10342;BME280;5216;54.602;18.356;2024-02-14T10:11:03;101908.03;;;8.68;61.04
10342;BME280;5216;54.602;18.356;2024-02-14T10:13:33;101911.25;;;8.73;60.80
10342;BME280;5216;54.602;18.356;2024-02-14T10:16:01;101899.66;;;8.74;60.35
10342;BME280;5216;54.602;18.356;2024-02-14T10:18:27;101912.78;;;8.77;59.76
10342;BME280;5216;54.602;18.356;2024-02-14T10:20:56;101904.91;;;8.75;59.33
10342;BME280;5216;54.602;18.356;2024-02-14T10:23:24;101907.44;;;8.77;59.43
10342;BME280;5216;54.602;18.356;2024-02-14T10:25:52;101896.59;;;8.80;59.21
10342;BME280;5216;54.602;18.356;2024-02-14T10:28:20;101904.50;;;8.81;59.12
10342;BME280;5216;54.602;18.356;2024-02-14T10:30:58;101899.28;;;8.80;59.40
10342;BME280;5216;54.602;18.356;2024-02-14T10:33:29;101899.66;;;8.87;59.27
10342;BME280;5216;54.602;18.356;2024-02-14T10:35:59;101890.50;;;8.91;59.07
10342;BME280;5216;54.602;18.356;2024-02-14T10:38:31;101893.94;;;8.93;59.50
10342;BME280;5216;54.602;18.356;2024-02-14T10:41:02;101895.47;;;8.97;59.03
10342;BME280;5216;54.602;18.356;2024-02-14T10:43:31;101891.66;;;9.01;58.85
10342;BME280;5216;54.602;18.356;2024-02-14T10:46:08;101894.00;;;9.06;58.77
10342;BME280;5216;54.602;18.356;2024-02-14T10:48:37;101882.31;;;9.08;58.59
10342;BME280;5216;54.602;18.356;2024-02-14T10:51:08;101890.03;;;9.13;58.82
10342;BME280;5216;54.602;18.356;2024-02-14T10:53:36;101882.59;;;9.18;58.58
10342;BME280;5216;54.602;18.356;2024-02-14T10:56:09;101876.97;;;9.22;58.80
10342;BME280;5216;54.602;18.356;2024-02-14T10:58:36;101883.81;;;9.26;58.09
10342;BME280;5216;54.602;18.356;2024-02-14T11:01:06;101878.09;;;9.32;58.06
10342;BME280;5216;54.602;18.356;2024-02-14T11:03:36;101899.25;;;9.35;57.45
10342;BME280;5216;54.602;18.356;2024-02-14T11:06:03;101876.75;;;9.39;56.87
10342;BME280;5216;54.602;18.356;2024-02-14T11:08:31;101869.78;;;9.36;56.76
10342;BME280;5216;54.602;18.356;2024-02-14T11:11:02;101867.59;;;9.43;56.43
10342;BME280;5216;54.602;18.356;2024-02-14T11:13:29;101871.97;;;9.44;56.57
10342;BME280;5216;54.602;18.356;2024-02-14T11:16:03;101863.75;;;9.47;56.44
10342;BME280;5216;54.602;18.356;2024-02-14T11:18:33;101858.22;;;9.50;55.99
10342;BME280;5216;54.602;18.356;2024-02-14T11:21:03;101865.16;;;9.52;56.11
10342;BME280;5216;54.602;18.356;2024-02-14T11:23:31;101857.81;;;9.55;56.03
10342;BME280;5216;54.602;18.356;2024-02-14T11:26:14;101857.63;;;9.58;56.54
10342;BME280;5216;54.602;18.356;2024-02-14T11:28:45;101870.66;;;9.63;55.95
10342;BME280;5216;54.602;18.356;2024-02-14T11:31:16;101868.75;;;9.65;56.06
10342;BME280;5216;54.602;18.356;2024-02-14T11:33:43;101852.53;;;9.68;55.55
10342;BME280;5216;54.602;18.356;2024-02-14T11:36:13;101846.88;;;9.72;55.68
10342;BME280;5216;54.602;18.356;2024-02-14T11:38:41;101843.91;;;9.77;56.39
10342;BME280;5216;54.602;18.356;2024-02-14T11:41:10;101839.97;;;9.82;55.44
10342;BME280;5216;54.602;18.356;2024-02-14T11:43:37;101834.22;;;9.88;55.46
10342;BME280;5216;54.602;18.356;2024-02-14T11:46:12;101827.44;;;9.96;55.07
10342;BME280;5216;54.602;18.356;2024-02-14T11:48:46;101836.09;;;10.00;55.11
10342;BME280;5216;54.602;18.356;2024-02-14T11:51:17;101831.94;;;10.08;55.22
10342;BME280;5216;54.602;18.356;2024-02-14T11:53:45;101830.38;;;10.30;54.99
10342;BME280;5216;54.602;18.356;2024-02-14T11:56:14;101818.91;;;10.78;55.17
10342;BME280;5216;54.602;18.356;2024-02-14T11:58:42;101819.03;;;11.24;54.06
10342;BME280;5216;54.602;18.356;2024-02-14T12:01:09;101821.16;;;11.44;52.09
10342;BME280;5216;54.602;18.356;2024-02-14T12:03:38;101825.81;;;11.53;51.71
10342;BME280;5216;54.602;18.356;2024-02-14T12:06:05;101828.47;;;11.65;51.52
10342;BME280;5216;54.602;18.356;2024-02-14T12:08:33;101820.81;;;11.72;51.25
10342;BME280;5216;54.602;18.356;2024-02-14T12:11:00;101814.16;;;11.77;51.52
10342;BME280;5216;54.602;18.356;2024-02-14T12:13:27;101821.19;;;11.78;51.37
10342;BME280;5216;54.602;18.356;2024-02-14T12:15:59;101820.56;;;11.75;50.85
10342;BME280;5216;54.602;18.356;2024-02-14T12:18:26;101824.69;;;11.68;50.67
10342;BME280;5216;54.602;18.356;2024-02-14T12:21:03;101823.22;;;11.64;50.23
10342;BME280;5216;54.602;18.356;2024-02-14T12:23:30;101827.09;;;11.60;50.03
10342;BME280;5216;54.602;18.356;2024-02-14T12:26:03;101817.69;;;11.54;50.23
10342;BME280;5216;54.602;18.356;2024-02-14T12:28:31;101820.25;;;11.56;50.86
10342;BME280;5216;54.602;18.356;2024-02-14T12:30:58;101809.53;;;11.56;49.86
10342;BME280;5216;54.602;18.356;2024-02-14T12:33:26;101805.59;;;11.49;49.62
10342;BME280;5216;54.602;18.356;2024-02-14T12:35:55;101808.94;;;11.40;49.75
10342;BME280;5216;54.602;18.356;2024-02-14T12:38:23;101813.22;;;11.30;49.97
10342;BME280;5216;54.602;18.356;2024-02-14T12:40:50;101799.56;;;11.22;50.14
10342;BME280;5216;54.602;18.356;2024-02-14T12:43:20;101805.34;;;11.16;50.73
10342;BME280;5216;54.602;18.356;2024-02-14T12:45:47;101808.47;;;11.10;50.86
10342;BME280;5216;54.602;18.356;2024-02-14T12:48:22;101802.63;;;11.05;51.20
10342;BME280;5216;54.602;18.356;2024-02-14T12:50:49;101804.09;;;11.09;51.05
10342;BME280;5216;54.602;18.356;2024-02-14T12:53:18;101799.50;;;11.11;51.13
10342;BME280;5216;54.602;18.356;2024-02-14T12:55:46;101798.53;;;11.12;51.03
10342;BME280;5216;54.602;18.356;2024-02-14T12:58:14;101796.59;;;11.14;50.77
10342;BME280;5216;54.602;18.356;2024-02-14T13:00:42;101798.31;;;11.15;50.01
10342;BME280;5216;54.602;18.356;2024-02-14T13:03:11;101791.53;;;11.22;50.58
10342;BME280;5216;54.602;18.356;2024-02-14T13:05:41;101788.41;;;11.28;50.68